sensor_id;sensor_type;location;lat;lon;timestamp;temperature;humidity
4578;DHT22;2301;47.354;8.528;2023-04-28T00:01:20;15.80;65.40
4578;DHT22;2301;47.354;8.528;2023-04-28T00:03:51;15.80;65.50
4578;DHT22;2301;47.354;8.528;2023-04-28T00:06:21;15.80;65.70
4578;DHT22;2301;47.354;8.528;2023-04-28T00:08:47;15.80;65.70
4578;DHT22;2301;47.354;8.528;2023-04-28T00:11:16;15.80;65.70
4578;DHT22;2301;47.354;8.528;2023-04-28T00:13:43;15.80;65.70
4578;DHT22;2301;47.354;8.528;2023-04-28T00:16:10;15.80;65.80
4578;DHT22;2301;47.354;8.528;2023-04-28T00:18:37;15.80;65.90
4578;DHT22;2301;47.354;8.528;2023-04-28T00:21:04;15.80;66.00
4578;DHT22;2301;47.354;8.528;2023-04-28T00:23:31;15.80;66.20
4578;DHT22;2301;47.354;8.528;2023-04-28T00:25:58;15.80;66.50
4578;DHT22;2301;47.354;8.528;2023-04-28T00:28:26;15.80;66.50
4578;DHT22;2301;47.354;8.528;2023-04-28T00:30:53;15.80;66.70
4578;DHT22;2301;47.354;8.528;2023-04-28T00:33:20;15.70;66.90
4578;DHT22;2301;47.354;8.528;2023-04-28T00:35:48;15.70;66.90
4578;DHT22;2301;47.354;8.528;2023-04-28T00:38:15;15.70;67.20
4578;DHT22;2301;47.354;8.528;2023-04-28T00:40:41;15.70;67.40
4578;DHT22;2301;47.354;8.528;2023-04-28T00:43:08;15.70;67.90
4578;DHT22;2301;47.354;8.528;2023-04-28T00:45:37;15.70;68.80
4578;DHT22;2301;47.354;8.528;2023-04-28T00:48:04;15.70;69.20
4578;DHT22;2301;47.354;8.528;2023-04-28T00:50:31;15.70;69.40
4578;DHT22;2301;47.354;8.528;2023-04-28T00:52:59;15.60;69.30
4578;DHT22;2301;47.354;8.528;2023-04-28T00:55:27;15.60;69.30
4578;DHT22;2301;47.354;8.528;2023-04-28T00:57:58;15.60;69.30
4578;DHT22;2301;47.354;8.528;2023-04-28T01:00:25;15.60;69.30
4578;DHT22;2301;47.354;8.528;2023-04-28T01:02:56;15.60;69.20
4578;DHT22;2301;47.354;8.528;2023-04-28T01:05:29;15.60;69.20
4578;DHT22;2301;47.354;8.528;2023-04-28T01:07:58;15.60;69.00
4578;DHT22;2301;47.354;8.528;2023-04-28T01:10:25;15.60;68.90
4578;DHT22;2301;47.354;8.528;2023-04-28T01:12:52;15.60;68.70
4578;DHT22;2301;47.354;8.528;2023-04-28T01:15:19;15.60;68.70
4578;DHT22;2301;47.354;8.528;2023-04-28T01:17:47;15.60;68.70
4578;DHT22;2301;47.354;8.528;2023-04-28T01:20:15;15.60;68.90
4578;DHT22;2301;47.354;8.528;2023-04-28T01:22:42;15.60;69.00
4578;DHT22;2301;47.354;8.528;2023-04-28T01:25:11;15.60;69.10
4578;DHT22;2301;47.354;8.528;2023-04-28T01:27:37;15.60;69.10
4578;DHT22;2301;47.354;8.528;2023-04-28T01:30:06;15.60;69.20
4578;DHT22;2301;47.354;8.528;2023-04-28T01:32:33;15.60;69.60
4578;DHT22;2301;47.354;8.528;2023-04-28T01:35:00;15.60;70.20
4578;DHT22;2301;47.354;8.528;2023-04-28T01:37:28;15.60;70.90
4578;DHT22;2301;47.354;8.528;2023-04-28T01:39:55;15.60;71.30
4578;DHT22;2301;47.354;8.528;2023-04-28T01:42:23;15.60;71.90
4578;DHT22;2301;47.354;8.528;2023-04-28T01:44:50;15.50;72.30
4578;DHT22;2301;47.354;8.528;2023-04-28T01:47:17;15.50;72.80
4578;DHT22;2301;47.354;8.528;2023-04-28T01:49:45;15.50;73.50
4578;DHT22;2301;47.354;8.528;2023-04-28T01:52:14;15.50;74.50
4578;DHT22;2301;47.354;8.528;2023-04-28T01:54:41;15.50;75.50
4578;DHT22;2301;47.354;8.528;2023-04-28T01:57:08;15.50;76.10
4578;DHT22;2301;47.354;8.528;2023-04-28T01:59:42;15.50;76.40
4578;DHT22;2301;47.354;8.528;2023-04-28T02:02:14;15.50;76.50
4578;DHT22;2301;47.354;8.528;2023-04-28T02:04:43;15.50;77.10
4578;DHT22;2301;47.354;8.528;2023-04-28T02:07:10;15.50;77.50
4578;DHT22;2301;47.354;8.528;2023-04-28T02:09:37;15.50;77.40
4578;DHT22;2301;47.354;8.528;2023-04-28T02:12:04;15.50;77.60
4578;DHT22;2301;47.354;8.528;2023-04-28T02:14:31;15.50;77.80
4578;DHT22;2301;47.354;8.528;2023-04-28T02:17:00;15.50;78.00
4578;DHT22;2301;47.354;8.528;2023-04-28T02:19:29;15.50;78.40
4578;DHT22;2301;47.354;8.528;2023-04-28T02:21:58;15.50;78.90
4578;DHT22;2301;47.354;8.528;2023-04-28T02:24:28;15.40;79.20
4578;DHT22;2301;47.354;8.528;2023-04-28T02:26:55;15.40;79.40
4578;DHT22;2301;47.354;8.528;2023-04-28T02:29:23;15.40;80.00
4578;DHT22;2301;47.354;8.528;2023-04-28T02:31:50;15.40;80.50
4578;DHT22;2301;47.354;8.528;2023-04-28T02:34:19;15.40;81.00
4578;DHT22;2301;47.354;8.528;2023-04-28T02:36:46;15.40;81.70
4578;DHT22;2301;47.354;8.528;2023-04-28T02:39:14;15.30;81.90
4578;DHT22;2301;47.354;8.528;2023-04-28T02:41:41;15.30;81.70
4578;DHT22;2301;47.354;8.528;2023-04-28T02:44:08;15.30;82.20
4578;DHT22;2301;47.354;8.528;2023-04-28T02:46:35;15.30;82.80
4578;DHT22;2301;47.354;8.528;2023-04-28T02:49:02;15.30;82.80
4578;DHT22;2301;47.354;8.528;2023-04-28T02:51:30;15.30;83.40
4578;DHT22;2301;47.354;8.528;2023-04-28T02:53:57;15.30;83.80
4578;DHT22;2301;47.354;8.528;2023-04-28T02:56:25;15.30;84.60
4578;DHT22;2301;47.354;8.528;2023-04-28T02:58:54;15.30;85.40
4578;DHT22;2301;47.354;8.528;2023-04-28T03:01:21;15.30;85.90
4578;DHT22;2301;47.354;8.528;2023-04-28T03:03:48;15.30;86.30
4578;DHT22;2301;47.354;8.528;2023-04-28T03:06:15;15.30;86.60
4578;DHT22;2301;47.354;8.528;2023-04-28T03:08:43;15.30;87.20
4578;DHT22;2301;47.354;8.528;2023-04-28T03:11:10;15.30;88.10
4578;DHT22;2301;47.354;8.528;2023-04-28T03:13:38;15.20;88.60
4578;DHT22;2301;47.354;8.528;2023-04-28T03:16:05;15.20;88.80
4578;DHT22;2301;47.354;8.528;2023-04-28T03:18:33;15.20;89.20
4578;DHT22;2301;47.354;8.528;2023-04-28T03:21:00;15.20;89.60
4578;DHT22;2301;47.354;8.528;2023-04-28T03:23:28;15.20;90.00
4578;DHT22;2301;47.354;8.528;2023-04-28T03:25:56;15.20;90.20
4578;DHT22;2301;47.354;8.528;2023-04-28T03:28:23;15.20;90.40
4578;DHT22;2301;47.354;8.528;2023-04-28T03:30:50;15.20;90.50
4578;DHT22;2301;47.354;8.528;2023-04-28T03:33:17;15.20;90.70
4578;DHT22;2301;47.354;8.528;2023-04-28T03:35:45;15.10;90.90
4578;DHT22;2301;47.354;8.528;2023-04-28T03:38:12;15.10;91.10
4578;DHT22;2301;47.354;8.528;2023-04-28T03:40:39;15.10;91.00
4578;DHT22;2301;47.354;8.528;2023-04-28T03:43:07;15.10;90.90
4578;DHT22;2301;47.354;8.528;2023-04-28T03:45:34;15.00;90.90
4578;DHT22;2301;47.354;8.528;2023-04-28T03:48:01;15.00;91.10
4578;DHT22;2301;47.354;8.528;2023-04-28T03:50:28;15.00;91.30
4578;DHT22;2301;47.354;8.528;2023-04-28T03:52:55;15.00;91.70
4578;DHT22;2301;47.354;8.528;2023-04-28T03:55:22;15.00;91.60
4578;DHT22;2301;47.354;8.528;2023-04-28T03:57:50;15.00;91.60
4578;DHT22;2301;47.354;8.528;2023-04-28T04:00:18;15.00;91.80
4578;DHT22;2301;47.354;8.528;2023-04-28T04:02:45;15.00;91.90
4578;DHT22;2301;47.354;8.528;2023-04-28T04:05:12;15.00;92.20
4578;DHT22;2301;47.354;8.528;2023-04-28T04:07:39;15.00;92.20
4578;DHT22;2301;47.354;8.528;2023-04-28T04:10:07;15.00;92.40
4578;DHT22;2301;47.354;8.528;2023-04-28T04:12:34;15.00;92.50
4578;DHT22;2301;47.354;8.528;2023-04-28T04:15:01;15.00;92.50
4578;DHT22;2301;47.354;8.528;2023-04-28T04:17:30;14.90;92.40
4578;DHT22;2301;47.354;8.528;2023-04-28T04:19:57;14.90;92.40
4578;DHT22;2301;47.354;8.528;2023-04-28T04:22:24;14.90;92.60
4578;DHT22;2301;47.354;8.528;2023-04-28T04:24:51;14.90;92.70
4578;DHT22;2301;47.354;8.528;2023-04-28T04:27:18;14.80;92.90
4578;DHT22;2301;47.354;8.528;2023-04-28T04:29:45;14.80;93.00
4578;DHT22;2301;47.354;8.528;2023-04-28T04:32:12;14.80;93.10
4578;DHT22;2301;47.354;8.528;2023-04-28T04:34:41;14.80;93.10
4578;DHT22;2301;47.354;8.528;2023-04-28T04:37:08;14.80;92.90
4578;DHT22;2301;47.354;8.528;2023-04-28T04:39:35;14.70;92.90
4578;DHT22;2301;47.354;8.528;2023-04-28T04:42:02;14.80;92.90
4578;DHT22;2301;47.354;8.528;2023-04-28T04:44:30;14.80;93.00
4578;DHT22;2301;47.354;8.528;2023-04-28T04:46:56;14.70;92.90
4578;DHT22;2301;47.354;8.528;2023-04-28T04:49:23;14.70;92.90
4578;DHT22;2301;47.354;8.528;2023-04-28T04:51:52;14.70;92.90
4578;DHT22;2301;47.354;8.528;2023-04-28T04:54:19;14.70;93.10
4578;DHT22;2301;47.354;8.528;2023-04-28T04:56:46;14.60;93.10
4578;DHT22;2301;47.354;8.528;2023-04-28T04:59:13;14.70;93.20
4578;DHT22;2301;47.354;8.528;2023-04-28T05:01:40;14.60;93.30
4578;DHT22;2301;47.354;8.528;2023-04-28T05:04:07;14.60;93.20
4578;DHT22;2301;47.354;8.528;2023-04-28T05:06:33;14.60;93.20
4578;DHT22;2301;47.354;8.528;2023-04-28T05:09:02;14.60;93.20
4578;DHT22;2301;47.354;8.528;2023-04-28T05:11:29;14.70;93.10
4578;DHT22;2301;47.354;8.528;2023-04-28T05:13:56;14.60;93.00
4578;DHT22;2301;47.354;8.528;2023-04-28T05:16:23;14.60;93.00
4578;DHT22;2301;47.354;8.528;2023-04-28T05:18:50;14.60;93.10
4578;DHT22;2301;47.354;8.528;2023-04-28T05:21:17;14.60;93.00
4578;DHT22;2301;47.354;8.528;2023-04-28T05:23:44;14.60;93.00
4578;DHT22;2301;47.354;8.528;2023-04-28T05:26:13;14.60;93.00
4578;DHT22;2301;47.354;8.528;2023-04-28T05:28:41;14.60;93.00
4578;DHT22;2301;47.354;8.528;2023-04-28T05:31:08;14.60;93.00
4578;DHT22;2301;47.354;8.528;2023-04-28T05:33:35;14.60;93.00
4578;DHT22;2301;47.354;8.528;2023-04-28T05:36:02;14.60;93.10
4578;DHT22;2301;47.354;8.528;2023-04-28T05:38:29;14.60;93.10
4578;DHT22;2301;47.354;8.528;2023-04-28T05:40:59;14.60;93.20
4578;DHT22;2301;47.354;8.528;2023-04-28T05:43:30;14.60;93.30
4578;DHT22;2301;47.354;8.528;2023-04-28T05:45:56;14.60;93.10
4578;DHT22;2301;47.354;8.528;2023-04-28T05:48:23;14.60;93.00
4578;DHT22;2301;47.354;8.528;2023-04-28T05:50:51;14.60;93.00
4578;DHT22;2301;47.354;8.528;2023-04-28T05:53:18;14.60;93.10
4578;DHT22;2301;47.354;8.528;2023-04-28T05:55:45;14.60;93.40
4578;DHT22;2301;47.354;8.528;2023-04-28T05:58:12;14.60;93.60
4578;DHT22;2301;47.354;8.528;2023-04-28T06:00:41;14.60;93.60
4578;DHT22;2301;47.354;8.528;2023-04-28T06:03:08;14.60;93.70
4578;DHT22;2301;47.354;8.528;2023-04-28T06:05:35;14.60;93.80
4578;DHT22;2301;47.354;8.528;2023-04-28T06:08:03;14.60;93.90
4578;DHT22;2301;47.354;8.528;2023-04-28T06:10:32;14.60;94.00
4578;DHT22;2301;47.354;8.528;2023-04-28T06:12:59;14.60;94.00
4578;DHT22;2301;47.354;8.528;2023-04-28T06:15:29;14.60;93.90
4578;DHT22;2301;47.354;8.528;2023-04-28T06:18:06;14.60;94.00
4578;DHT22;2301;47.354;8.528;2023-04-28T06:20:37;14.70;94.10
4578;DHT22;2301;47.354;8.528;2023-04-28T06:23:04;14.70;94.20
4578;DHT22;2301;47.354;8.528;2023-04-28T06:25:31;14.70;94.10
4578;DHT22;2301;47.354;8.528;2023-04-28T06:27:58;14.70;94.10
4578;DHT22;2301;47.354;8.528;2023-04-28T06:30:25;14.70;94.00
4578;DHT22;2301;47.354;8.528;2023-04-28T06:32:52;14.70;94.10
4578;DHT22;2301;47.354;8.528;2023-04-28T06:35:21;14.70;94.40
4578;DHT22;2301;47.354;8.528;2023-04-28T06:37:48;14.70;94.40
4578;DHT22;2301;47.354;8.528;2023-04-28T06:40:15;14.70;94.40
4578;DHT22;2301;47.354;8.528;2023-04-28T06:42:42;14.70;94.40
4578;DHT22;2301;47.354;8.528;2023-04-28T06:45:10;14.70;94.40
4578;DHT22;2301;47.354;8.528;2023-04-28T06:47:37;14.70;94.30
4578;DHT22;2301;47.354;8.528;2023-04-28T06:50:06;14.70;94.40
4578;DHT22;2301;47.354;8.528;2023-04-28T06:52:34;14.70;94.50
4578;DHT22;2301;47.354;8.528;2023-04-28T06:55:03;14.70;94.50
4578;DHT22;2301;47.354;8.528;2023-04-28T06:57:30;14.70;94.50
4578;DHT22;2301;47.354;8.528;2023-04-28T06:59:57;14.70;94.60
4578;DHT22;2301;47.354;8.528;2023-04-28T07:02:24;14.70;94.60
4578;DHT22;2301;47.354;8.528;2023-04-28T07:04:51;14.70;94.60
4578;DHT22;2301;47.354;8.528;2023-04-28T07:07:18;14.70;94.80
4578;DHT22;2301;47.354;8.528;2023-04-28T07:09:47;14.70;94.90
4578;DHT22;2301;47.354;8.528;2023-04-28T07:12:14;14.70;95.00
4578;DHT22;2301;47.354;8.528;2023-04-28T07:14:41;14.80;95.10
4578;DHT22;2301;47.354;8.528;2023-04-28T07:17:08;14.80;95.00
4578;DHT22;2301;47.354;8.528;2023-04-28T07:19:35;14.70;95.10
4578;DHT22;2301;47.354;8.528;2023-04-28T07:22:02;14.70;94.90
4578;DHT22;2301;47.354;8.528;2023-04-28T07:24:29;14.60;94.90
4578;DHT22;2301;47.354;8.528;2023-04-28T07:26:58;14.70;95.00
4578;DHT22;2301;47.354;8.528;2023-04-28T07:29:25;14.70;95.30
4578;DHT22;2301;47.354;8.528;2023-04-28T07:31:58;14.70;94.70
4578;DHT22;2301;47.354;8.528;2023-04-28T07:34:25;14.70;94.70
4578;DHT22;2301;47.354;8.528;2023-04-28T07:36:52;14.70;94.60
4578;DHT22;2301;47.354;8.528;2023-04-28T07:39:20;14.70;94.70
4578;DHT22;2301;47.354;8.528;2023-04-28T07:41:47;14.60;94.70
4578;DHT22;2301;47.354;8.528;2023-04-28T07:44:15;14.70;94.80
4578;DHT22;2301;47.354;8.528;2023-04-28T07:46:42;14.60;94.70
4578;DHT22;2301;47.354;8.528;2023-04-28T07:49:09;14.60;94.70
4578;DHT22;2301;47.354;8.528;2023-04-28T07:51:36;14.60;94.60
4578;DHT22;2301;47.354;8.528;2023-04-28T07:54:03;14.50;94.50
4578;DHT22;2301;47.354;8.528;2023-04-28T07:56:30;14.50;94.70
4578;DHT22;2301;47.354;8.528;2023-04-28T07:58:57;14.40;94.70
4578;DHT22;2301;47.354;8.528;2023-04-28T08:01:25;14.40;94.80
4578;DHT22;2301;47.354;8.528;2023-04-28T08:03:52;14.40;94.90
4578;DHT22;2301;47.354;8.528;2023-04-28T08:06:19;14.40;95.10
4578;DHT22;2301;47.354;8.528;2023-04-28T08:08:46;14.30;95.30
4578;DHT22;2301;47.354;8.528;2023-04-28T08:11:14;14.30;95.50
4578;DHT22;2301;47.354;8.528;2023-04-28T08:13:41;14.30;95.60
4578;DHT22;2301;47.354;8.528;2023-04-28T08:16:08;14.30;95.60
4578;DHT22;2301;47.354;8.528;2023-04-28T08:18:37;14.30;95.60
4578;DHT22;2301;47.354;8.528;2023-04-28T08:21:05;14.40;95.60
4578;DHT22;2301;47.354;8.528;2023-04-28T08:23:32;14.30;95.70
4578;DHT22;2301;47.354;8.528;2023-04-28T08:26:00;14.30;95.60
4578;DHT22;2301;47.354;8.528;2023-04-28T08:28:27;14.40;95.80
4578;DHT22;2301;47.354;8.528;2023-04-28T08:30:54;14.30;95.80
4578;DHT22;2301;47.354;8.528;2023-04-28T08:33:21;14.40;95.90
4578;DHT22;2301;47.354;8.528;2023-04-28T08:35:50;14.30;96.00
4578;DHT22;2301;47.354;8.528;2023-04-28T08:38:17;14.30;96.10
4578;DHT22;2301;47.354;8.528;2023-04-28T08:40:44;14.40;96.20
4578;DHT22;2301;47.354;8.528;2023-04-28T08:43:11;14.40;96.30
4578;DHT22;2301;47.354;8.528;2023-04-28T08:45:41;14.40;96.40
4578;DHT22;2301;47.354;8.528;2023-04-28T08:48:16;14.50;96.40
4578;DHT22;2301;47.354;8.528;2023-04-28T08:50:54;14.50;96.40
4578;DHT22;2301;47.354;8.528;2023-04-28T08:53:27;14.60;96.60
4578;DHT22;2301;47.354;8.528;2023-04-28T08:55:57;14.60;96.70
4578;DHT22;2301;47.354;8.528;2023-04-28T08:58:25;14.60;96.60
4578;DHT22;2301;47.354;8.528;2023-04-28T09:00:53;14.60;96.60
4578;DHT22;2301;47.354;8.528;2023-04-28T09:03:20;14.60;96.60
4578;DHT22;2301;47.354;8.528;2023-04-28T09:05:47;14.60;96.50
4578;DHT22;2301;47.354;8.528;2023-04-28T09:08:15;14.60;96.40
4578;DHT22;2301;47.354;8.528;2023-04-28T09:10:43;14.60;96.40
4578;DHT22;2301;47.354;8.528;2023-04-28T09:13:24;14.60;96.40
4578;DHT22;2301;47.354;8.528;2023-04-28T09:15:58;14.60;96.40
4578;DHT22;2301;47.354;8.528;2023-04-28T09:18:26;14.60;96.30
4578;DHT22;2301;47.354;8.528;2023-04-28T09:21:02;14.60;96.40
4578;DHT22;2301;47.354;8.528;2023-04-28T09:23:31;14.60;96.40
4578;DHT22;2301;47.354;8.528;2023-04-28T09:26:00;14.60;96.40
4578;DHT22;2301;47.354;8.528;2023-04-28T09:28:28;14.50;96.40
4578;DHT22;2301;47.354;8.528;2023-04-28T09:30:55;14.60;96.80
4578;DHT22;2301;47.354;8.528;2023-04-28T09:33:22;14.60;96.70
4578;DHT22;2301;47.354;8.528;2023-04-28T09:35:49;14.60;96.80
4578;DHT22;2301;47.354;8.528;2023-04-28T09:38:18;14.70;96.90
4578;DHT22;2301;47.354;8.528;2023-04-28T09:41:02;14.70;97.10
4578;DHT22;2301;47.354;8.528;2023-04-28T09:43:31;14.80;97.20
4578;DHT22;2301;47.354;8.528;2023-04-28T09:46:01;14.80;97.10
4578;DHT22;2301;47.354;8.528;2023-04-28T09:48:30;14.90;97.00
4578;DHT22;2301;47.354;8.528;2023-04-28T09:50:58;14.90;97.10
4578;DHT22;2301;47.354;8.528;2023-04-28T09:53:25;15.00;97.50
4578;DHT22;2301;47.354;8.528;2023-04-28T09:55:55;14.90;96.90
4578;DHT22;2301;47.354;8.528;2023-04-28T09:58:24;14.90;96.80
4578;DHT22;2301;47.354;8.528;2023-04-28T10:00:53;14.90;96.90
4578;DHT22;2301;47.354;8.528;2023-04-28T10:03:21;14.80;97.00
4578;DHT22;2301;47.354;8.528;2023-04-28T10:05:50;14.90;97.20
4578;DHT22;2301;47.354;8.528;2023-04-28T10:08:18;14.90;97.20
4578;DHT22;2301;47.354;8.528;2023-04-28T10:10:46;14.90;97.20
4578;DHT22;2301;47.354;8.528;2023-04-28T10:13:16;14.90;97.40
4578;DHT22;2301;47.354;8.528;2023-04-28T10:15:44;14.90;97.40
4578;DHT22;2301;47.354;8.528;2023-04-28T10:18:12;15.00;97.50
4578;DHT22;2301;47.354;8.528;2023-04-28T10:20:41;15.00;97.40
4578;DHT22;2301;47.354;8.528;2023-04-28T10:23:41;15.00;97.30
4578;DHT22;2301;47.354;8.528;2023-04-28T10:26:14;15.00;97.30
4578;DHT22;2301;47.354;8.528;2023-04-28T10:28:46;14.90;97.40
4578;DHT22;2301;47.354;8.528;2023-04-28T10:31:14;14.90;97.40
4578;DHT22;2301;47.354;8.528;2023-04-28T10:33:42;14.90;97.50
4578;DHT22;2301;47.354;8.528;2023-04-28T10:36:10;14.90;97.60
4578;DHT22;2301;47.354;8.528;2023-04-28T10:39:07;14.90;97.70
4578;DHT22;2301;47.354;8.528;2023-04-28T10:41:35;15.00;98.00
4578;DHT22;2301;47.354;8.528;2023-04-28T10:47:05;14.90;98.00
4578;DHT22;2301;47.354;8.528;2023-04-28T10:50:07;15.00;98.20
4578;DHT22;2301;47.354;8.528;2023-04-28T10:52:48;15.00;98.10
4578;DHT22;2301;47.354;8.528;2023-04-28T10:55:31;15.10;98.10
4578;DHT22;2301;47.354;8.528;2023-04-28T10:58:32;15.10;98.30
4578;DHT22;2301;47.354;8.528;2023-04-28T11:01:26;15.10;98.00
4578;DHT22;2301;47.354;8.528;2023-04-28T11:03:56;15.10;98.10
4578;DHT22;2301;47.354;8.528;2023-04-28T11:06:29;15.10;98.10
4578;DHT22;2301;47.354;8.528;2023-04-28T11:09:00;15.10;98.20
4578;DHT22;2301;47.354;8.528;2023-04-28T11:11:29;15.10;98.50
4578;DHT22;2301;47.354;8.528;2023-04-28T11:17:08;15.30;98.70
4578;DHT22;2301;47.354;8.528;2023-04-28T11:19:41;15.20;98.60
4578;DHT22;2301;47.354;8.528;2023-04-28T11:22:13;15.30;98.70
4578;DHT22;2301;47.354;8.528;2023-04-28T11:24:41;15.40;98.90
4578;DHT22;2301;47.354;8.528;2023-04-28T11:27:22;15.30;98.90
4578;DHT22;2301;47.354;8.528;2023-04-28T11:29:50;15.40;98.90
4578;DHT22;2301;47.354;8.528;2023-04-28T11:32:25;15.40;99.00
4578;DHT22;2301;47.354;8.528;2023-04-28T11:34:53;15.40;99.00
4578;DHT22;2301;47.354;8.528;2023-04-28T11:37:21;15.40;98.90
4578;DHT22;2301;47.354;8.528;2023-04-28T11:39:48;15.50;99.10
4578;DHT22;2301;47.354;8.528;2023-04-28T11:42:15;15.40;99.10
4578;DHT22;2301;47.354;8.528;2023-04-28T11:44:49;15.40;98.80
4578;DHT22;2301;47.354;8.528;2023-04-28T11:47:27;15.40;98.90
4578;DHT22;2301;47.354;8.528;2023-04-28T11:49:57;15.50;99.00
4578;DHT22;2301;47.354;8.528;2023-04-28T11:52:24;15.50;99.20
4578;DHT22;2301;47.354;8.528;2023-04-28T11:54:55;15.70;99.70
4578;DHT22;2301;47.354;8.528;2023-04-28T11:57:23;15.80;99.90
4578;DHT22;2301;47.354;8.528;2023-04-28T11:59:51;15.90;99.90
4578;DHT22;2301;47.354;8.528;2023-04-28T12:02:24;16.00;99.90
4578;DHT22;2301;47.354;8.528;2023-04-28T12:04:53;16.10;99.90
4578;DHT22;2301;47.354;8.528;2023-04-28T12:07:22;16.10;99.90
4578;DHT22;2301;47.354;8.528;2023-04-28T12:10:10;16.20;99.90
4578;DHT22;2301;47.354;8.528;2023-04-28T12:12:37;16.20;99.90
4578;DHT22;2301;47.354;8.528;2023-04-28T12:15:06;16.20;99.90
4578;DHT22;2301;47.354;8.528;2023-04-28T12:17:34;16.10;99.50
4578;DHT22;2301;47.354;8.528;2023-04-28T12:20:03;16.10;99.30
4578;DHT22;2301;47.354;8.528;2023-04-28T12:22:42;16.00;99.30
4578;DHT22;2301;47.354;8.528;2023-04-28T12:25:11;16.10;99.60
4578;DHT22;2301;47.354;8.528;2023-04-28T12:27:39;16.00;99.60
4578;DHT22;2301;47.354;8.528;2023-04-28T12:30:24;16.10;99.70
4578;DHT22;2301;47.354;8.528;2023-04-28T12:32:51;16.10;99.80
4578;DHT22;2301;47.354;8.528;2023-04-28T12:35:20;16.10;99.90
4578;DHT22;2301;47.354;8.528;2023-04-28T12:37:49;16.20;99.90
4578;DHT22;2301;47.354;8.528;2023-04-28T12:40:17;16.20;99.90
4578;DHT22;2301;47.354;8.528;2023-04-28T12:42:44;16.30;99.90
4578;DHT22;2301;47.354;8.528;2023-04-28T12:45:11;16.30;99.90
4578;DHT22;2301;47.354;8.528;2023-04-28T12:47:37;16.30;99.90
4578;DHT22;2301;47.354;8.528;2023-04-28T12:50:06;16.40;99.90
4578;DHT22;2301;47.354;8.528;2023-04-28T12:52:33;16.40;99.90
4578;DHT22;2301;47.354;8.528;2023-04-28T12:55:03;16.50;99.90
4578;DHT22;2301;47.354;8.528;2023-04-28T12:57:30;16.50;99.90
4578;DHT22;2301;47.354;8.528;2023-04-28T12:59:57;16.60;99.90
4578;DHT22;2301;47.354;8.528;2023-04-28T13:02:24;16.60;99.90
4578;DHT22;2301;47.354;8.528;2023-04-28T13:04:51;16.70;99.90
4578;DHT22;2301;47.354;8.528;2023-04-28T13:07:18;16.80;99.90
4578;DHT22;2301;47.354;8.528;2023-04-28T13:09:45;16.80;99.90
4578;DHT22;2301;47.354;8.528;2023-04-28T13:12:13;16.90;99.90
4578;DHT22;2301;47.354;8.528;2023-04-28T13:14:42;17.00;99.90
4578;DHT22;2301;47.354;8.528;2023-04-28T13:17:09;17.10;99.90
4578;DHT22;2301;47.354;8.528;2023-04-28T13:19:38;17.10;99.90
4578;DHT22;2301;47.354;8.528;2023-04-28T13:22:06;17.10;99.60
4578;DHT22;2301;47.354;8.528;2023-04-28T13:24:39;17.10;99.50
4578;DHT22;2301;47.354;8.528;2023-04-28T13:27:08;17.00;99.10
4578;DHT22;2301;47.354;8.528;2023-04-28T13:29:38;17.00;98.80
4578;DHT22;2301;47.354;8.528;2023-04-28T13:32:06;16.90;98.70
4578;DHT22;2301;47.354;8.528;2023-04-28T13:34:33;16.90;98.70
4578;DHT22;2301;47.354;8.528;2023-04-28T13:37:02;16.90;98.70
4578;DHT22;2301;47.354;8.528;2023-04-28T13:39:29;16.90;98.60
4578;DHT22;2301;47.354;8.528;2023-04-28T13:41:56;16.90;98.60
4578;DHT22;2301;47.354;8.528;2023-04-28T13:44:24;16.90;98.80
4578;DHT22;2301;47.354;8.528;2023-04-28T13:46:53;17.00;98.90
4578;DHT22;2301;47.354;8.528;2023-04-28T13:49:21;17.10;99.00
4578;DHT22;2301;47.354;8.528;2023-04-28T13:51:48;17.10;99.10
4578;DHT22;2301;47.354;8.528;2023-04-28T13:54:15;17.10;99.10
4578;DHT22;2301;47.354;8.528;2023-04-28T13:56:42;17.10;99.10
4578;DHT22;2301;47.354;8.528;2023-04-28T13:59:09;17.10;99.20
4578;DHT22;2301;47.354;8.528;2023-04-28T14:01:36;17.10;99.20
4578;DHT22;2301;47.354;8.528;2023-04-28T14:04:05;17.20;99.30
4578;DHT22;2301;47.354;8.528;2023-04-28T14:06:32;17.20;99.20
4578;DHT22;2301;47.354;8.528;2023-04-28T14:08:59;17.30;99.10
4578;DHT22;2301;47.354;8.528;2023-04-28T14:11:27;17.30;98.70
4578;DHT22;2301;47.354;8.528;2023-04-28T14:13:54;17.20;98.10
4578;DHT22;2301;47.354;8.528;2023-04-28T14:16:21;17.20;98.00
4578;DHT22;2301;47.354;8.528;2023-04-28T14:18:48;17.20;98.10
4578;DHT22;2301;47.354;8.528;2023-04-28T14:21:16;17.20;98.40
4578;DHT22;2301;47.354;8.528;2023-04-28T14:23:43;17.20;98.10
4578;DHT22;2301;47.354;8.528;2023-04-28T14:26:11;17.20;98.10
4578;DHT22;2301;47.354;8.528;2023-04-28T14:28:38;17.20;98.20
4578;DHT22;2301;47.354;8.528;2023-04-28T14:31:06;17.20;98.20
4578;DHT22;2301;47.354;8.528;2023-04-28T14:33:33;17.20;98.30
4578;DHT22;2301;47.354;8.528;2023-04-28T14:36:00;17.20;98.40
4578;DHT22;2301;47.354;8.528;2023-04-28T14:38:29;17.30;98.20
4578;DHT22;2301;47.354;8.528;2023-04-28T14:40:56;17.30;98.10
4578;DHT22;2301;47.354;8.528;2023-04-28T14:43:23;17.30;98.20
4578;DHT22;2301;47.354;8.528;2023-04-28T14:45:50;17.30;97.90
4578;DHT22;2301;47.354;8.528;2023-04-28T14:48:17;17.20;97.60
4578;DHT22;2301;47.354;8.528;2023-04-28T14:50:44;17.10;97.40
4578;DHT22;2301;47.354;8.528;2023-04-28T14:53:11;17.10;97.30
4578;DHT22;2301;47.354;8.528;2023-04-28T14:55:40;17.00;97.00
4578;DHT22;2301;47.354;8.528;2023-04-28T14:58:06;16.90;97.40
4578;DHT22;2301;47.354;8.528;2023-04-28T15:00:34;16.90;97.10
4578;DHT22;2301;47.354;8.528;2023-04-28T15:03:01;16.80;97.10
4578;DHT22;2301;47.354;8.528;2023-04-28T15:05:28;16.70;97.20
4578;DHT22;2301;47.354;8.528;2023-04-28T15:07:55;16.70;97.40
4578;DHT22;2301;47.354;8.528;2023-04-28T15:10:22;16.70;97.50
4578;DHT22;2301;47.354;8.528;2023-04-28T15:12:51;16.70;97.70
4578;DHT22;2301;47.354;8.528;2023-04-28T15:15:18;16.70;97.60
4578;DHT22;2301;47.354;8.528;2023-04-28T15:17:46;16.70;97.50
4578;DHT22;2301;47.354;8.528;2023-04-28T15:20:13;16.60;97.50
4578;DHT22;2301;47.354;8.528;2023-04-28T15:22:40;16.60;97.40
4578;DHT22;2301;47.354;8.528;2023-04-28T15:25:09;16.60;97.60
4578;DHT22;2301;47.354;8.528;2023-04-28T15:27:36;16.60;97.80
4578;DHT22;2301;47.354;8.528;2023-04-28T15:30:06;16.60;98.00
4578;DHT22;2301;47.354;8.528;2023-04-28T15:32:34;16.60;98.20
4578;DHT22;2301;47.354;8.528;2023-04-28T15:35:01;16.60;98.50
4578;DHT22;2301;47.354;8.528;2023-04-28T15:37:39;16.60;98.50
4578;DHT22;2301;47.354;8.528;2023-04-28T15:40:09;16.60;98.60
4578;DHT22;2301;47.354;8.528;2023-04-28T15:42:36;16.60;98.60
4578;DHT22;2301;47.354;8.528;2023-04-28T15:45:09;16.70;98.60
4578;DHT22;2301;47.354;8.528;2023-04-28T15:47:36;16.70;98.60
4578;DHT22;2301;47.354;8.528;2023-04-28T15:50:08;16.70;98.50
4578;DHT22;2301;47.354;8.528;2023-04-28T15:52:37;16.70;98.40
4578;DHT22;2301;47.354;8.528;2023-04-28T15:55:06;16.70;98.40
4578;DHT22;2301;47.354;8.528;2023-04-28T15:57:33;16.60;98.30
4578;DHT22;2301;47.354;8.528;2023-04-28T16:00:00;16.60;98.40
4578;DHT22;2301;47.354;8.528;2023-04-28T16:02:30;16.60;98.50
4578;DHT22;2301;47.354;8.528;2023-04-28T16:04:57;16.50;98.60
4578;DHT22;2301;47.354;8.528;2023-04-28T16:07:24;16.50;98.70
4578;DHT22;2301;47.354;8.528;2023-04-28T16:09:51;16.50;98.80
4578;DHT22;2301;47.354;8.528;2023-04-28T16:12:18;16.50;98.80
4578;DHT22;2301;47.354;8.528;2023-04-28T16:14:47;16.40;98.70
4578;DHT22;2301;47.354;8.528;2023-04-28T16:17:15;16.40;98.90